createdAt,value
2022-10-18T00:00:57.483Z,3.27
2022-10-18T00:03:25.954Z,3.73
2022-10-18T00:05:54.350Z,3.67
2022-10-18T00:08:22.381Z,3.77
2022-10-18T00:10:50.881Z,3.53
2022-10-18T00:13:20.413Z,3.43
2022-10-18T00:15:52.800Z,3.07
2022-10-18T00:18:20.761Z,3.43
2022-10-18T00:20:58.126Z,3.00
2022-10-18T00:23:26.660Z,3.10
2022-10-18T00:26:05.728Z,3.40
2022-10-18T00:28:36.328Z,3.47
2022-10-18T00:31:15.744Z,3.13
2022-10-18T00:33:44.935Z,3.20
2022-10-18T00:36:13.158Z,3.90
2022-10-18T00:38:41.465Z,3.40
2022-10-18T00:41:13.940Z,3.67
2022-10-18T00:44:02.291Z,3.70
2022-10-18T00:46:31.703Z,3.53
2022-10-18T00:49:02.655Z,3.50
2022-10-18T00:51:35.442Z,3.13
2022-10-18T00:54:03.552Z,3.53
2022-10-18T00:56:31.729Z,3.27
2022-10-18T00:59:01.147Z,3.37
2022-10-18T01:01:29.090Z,2.93
2022-10-18T01:03:57.852Z,2.90
2022-10-18T01:06:28.157Z,2.80
2022-10-18T01:09:11.070Z,3.20
2022-10-18T01:12:16.384Z,3.00
2022-10-18T01:14:52.539Z,3.50
2022-10-18T01:17:27.938Z,3.13
2022-10-18T01:20:39.327Z,2.93
2022-10-18T01:23:12.383Z,3.10
2022-10-18T01:25:50.592Z,3.20
2022-10-18T01:28:36.559Z,3.30
2022-10-18T01:31:09.862Z,3.20
2022-10-18T01:33:42.412Z,3.50
2022-10-18T01:36:16.589Z,3.60
2022-10-18T01:38:46.216Z,3.40
2022-10-18T01:41:16.063Z,3.80
2022-10-18T01:43:46.330Z,3.10
2022-10-18T01:46:21.158Z,3.30
2022-10-18T01:48:50.143Z,3.20
2022-10-18T01:51:20.080Z,3.40
2022-10-18T01:53:48.267Z,3.80
2022-10-18T01:56:33.581Z,3.13
2022-10-18T01:59:11.875Z,3.40
2022-10-18T02:01:52.837Z,4.00
2022-10-18T02:04:30.705Z,3.70
2022-10-18T02:07:05.754Z,3.73
2022-10-18T02:09:39.864Z,4.43
2022-10-18T02:12:10.582Z,3.63
2022-10-18T02:14:39.415Z,3.30
2022-10-18T02:17:11.812Z,3.63
2022-10-18T02:19:43.924Z,3.40
2022-10-18T02:22:13.748Z,4.00
2022-10-18T02:24:48.235Z,3.87
2022-10-18T02:27:16.597Z,3.83
2022-10-18T02:29:45.488Z,4.00
2022-10-18T02:32:21.133Z,3.60
2022-10-18T02:34:54.638Z,3.60
2022-10-18T02:37:22.624Z,3.30
2022-10-18T02:39:52.620Z,4.00
2022-10-18T02:42:20.489Z,3.30
2022-10-18T02:44:48.385Z,3.40
2022-10-18T02:47:17.714Z,3.67
2022-10-18T02:49:45.639Z,3.70
2022-10-18T02:52:13.467Z,3.70
2022-10-18T02:54:41.318Z,3.67
2022-10-18T02:57:09.572Z,3.70
2022-10-18T02:59:37.462Z,3.73
2022-10-18T03:02:05.307Z,3.43
2022-10-18T03:04:34.713Z,3.20
2022-10-18T03:07:02.732Z,3.57
2022-10-18T03:09:30.714Z,3.80
2022-10-18T03:11:58.864Z,3.83
2022-10-18T03:14:26.869Z,3.07
2022-10-18T03:16:56.887Z,3.93
2022-10-18T03:19:24.953Z,3.67
2022-10-18T03:21:54.179Z,4.17
2022-10-18T03:24:22.127Z,4.10
2022-10-18T03:26:50.228Z,3.90
2022-10-18T03:29:18.176Z,4.10
2022-10-18T03:31:46.119Z,4.33
2022-10-18T03:34:14.126Z,4.03
2022-10-18T03:36:42.638Z,4.30
2022-10-18T03:39:13.109Z,4.40
2022-10-18T03:41:41.077Z,4.10
2022-10-18T03:44:09.000Z,4.30
2022-10-18T03:46:39.488Z,4.40
2022-10-18T03:49:07.485Z,4.70
2022-10-18T03:51:35.370Z,5.07
2022-10-18T03:54:03.438Z,5.00
2022-10-18T03:56:32.933Z,4.77
2022-10-18T03:59:00.847Z,4.80
2022-10-18T04:01:28.740Z,4.60
2022-10-18T04:03:56.649Z,5.10
2022-10-18T04:06:24.524Z,5.37
2022-10-18T04:08:52.545Z,5.50
2022-10-18T04:11:20.403Z,5.57
2022-10-18T04:13:50.311Z,5.63
2022-10-18T04:16:18.209Z,5.23
2022-10-18T04:18:46.202Z,5.80
2022-10-18T04:21:14.281Z,5.43
2022-10-18T04:23:42.296Z,5.70
2022-10-18T04:26:10.370Z,6.40
2022-10-18T04:28:40.307Z,5.63
2022-10-18T04:31:10.310Z,5.63
2022-10-18T04:33:38.564Z,6.60
2022-10-18T04:36:06.999Z,5.97
2022-10-18T04:38:35.004Z,5.83
2022-10-18T04:41:03.017Z,6.20
2022-10-18T04:43:31.008Z,5.80
2022-10-18T04:45:59.078Z,5.87
2022-10-18T04:48:28.477Z,6.47
2022-10-18T04:50:56.426Z,6.57
2022-10-18T04:53:24.333Z,6.00
2022-10-18T04:55:52.476Z,6.27
2022-10-18T04:58:20.934Z,5.87
2022-10-18T05:00:48.999Z,5.80
2022-10-18T05:03:17.858Z,6.63
2022-10-18T05:06:01.410Z,6.93
2022-10-18T05:08:30.531Z,6.97
2022-10-18T05:10:58.585Z,6.27
2022-10-18T05:13:26.703Z,6.60
2022-10-18T05:15:54.872Z,6.87
2022-10-18T05:18:23.074Z,6.27
2022-10-18T05:20:54.131Z,6.27
2022-10-18T05:23:24.283Z,6.93
2022-10-18T05:25:53.220Z,8.10
2022-10-18T05:28:38.824Z,8.30
2022-10-18T05:31:09.394Z,7.97
2022-10-18T05:33:37.561Z,7.33
2022-10-18T05:36:07.657Z,8.97
2022-10-18T05:41:05.742Z,8.53
2022-10-18T05:43:34.052Z,8.20
2022-10-18T05:46:02.210Z,9.43
2022-10-18T05:48:30.306Z,9.43
2022-10-18T05:50:59.438Z,9.67
2022-10-18T05:53:38.046Z,9.80
2022-10-18T05:56:07.273Z,9.43
2022-10-18T05:58:35.920Z,9.97
2022-10-18T06:01:05.878Z,10.00
2022-10-18T06:03:34.752Z,10.23
2022-10-18T06:06:04.412Z,10.87
2022-10-18T06:08:35.593Z,10.90
2022-10-18T06:11:08.062Z,10.80
2022-10-18T06:13:36.277Z,11.30
2022-10-18T06:16:04.261Z,11.37
2022-10-18T06:23:07.795Z,10.27
2022-10-18T06:25:48.239Z,9.63
2022-10-18T06:28:16.660Z,10.80
2022-10-18T06:30:45.329Z,10.93
2022-10-18T06:33:13.300Z,11.70
2022-10-18T06:35:41.331Z,11.40
2022-10-18T06:38:09.428Z,12.30
2022-10-18T06:40:38.228Z,12.50
2022-10-18T06:43:19.987Z,12.23
2022-10-18T06:45:49.275Z,11.43
2022-10-18T06:48:23.876Z,10.27
2022-10-18T06:50:53.825Z,12.30
2022-10-18T06:53:22.029Z,12.27
2022-10-18T06:55:55.455Z,11.57
2022-10-18T06:58:24.970Z,12.13
2022-10-18T07:00:53.042Z,10.63
2022-10-18T07:03:21.858Z,11.83
2022-10-18T07:05:49.894Z,10.97
2022-10-18T07:08:18.973Z,13.07
2022-10-18T07:10:53.060Z,12.97
2022-10-18T07:13:31.969Z,13.77
2022-10-18T07:16:05.653Z,14.10
2022-10-18T07:18:35.624Z,14.40
2022-10-18T07:21:17.831Z,13.97
2022-10-18T07:23:47.270Z,14.77
2022-10-18T07:26:17.528Z,14.53
2022-10-18T07:28:48.083Z,15.93
2022-10-18T07:31:17.984Z,14.30
2022-10-18T07:33:46.162Z,13.77
2022-10-18T07:36:14.742Z,15.07
2022-10-18T07:38:42.990Z,14.23
2022-10-18T07:41:13.841Z,16.57
2022-10-18T07:43:47.000Z,16.63
2022-10-18T07:46:18.273Z,18.27
2022-10-18T07:49:00.651Z,16.93
2022-10-18T07:52:12.137Z,17.27
2022-10-18T07:54:42.872Z,20.03
2022-10-18T07:58:01.169Z,19.80
2022-10-18T08:00:50.112Z,19.27
2022-10-18T08:03:24.461Z,21.90
2022-10-18T08:05:54.342Z,22.13
2022-10-18T08:12:54.680Z,22.30
2022-10-18T08:15:25.119Z,22.97
2022-10-18T08:17:53.728Z,26.97
2022-10-18T08:34:19.531Z,27.40
2022-10-18T08:37:10.485Z,26.07
2022-10-18T08:39:38.977Z,34.67
2022-10-18T08:42:52.779Z,34.80
2022-10-18T08:45:40.820Z,34.63
2022-10-18T08:48:22.002Z,33.17
2022-10-18T08:50:54.509Z,31.95
2022-10-18T08:53:39.980Z,30.00
2022-10-18T08:56:14.934Z,29.97
2022-10-18T08:58:45.251Z,26.97
2022-10-18T09:01:25.978Z,31.73
2022-10-18T09:04:23.864Z,39.23
2022-10-18T09:07:04.689Z,41.47
2022-10-18T09:09:46.453Z,34.87
2022-10-18T09:12:29.445Z,38.50
2022-10-18T09:15:14.227Z,39.77
2022-10-18T09:17:57.650Z,39.93
2022-10-18T09:20:34.921Z,36.83
2022-10-18T09:23:14.201Z,36.27
2022-10-18T09:25:47.418Z,36.27
2022-10-18T09:28:21.019Z,34.60
2022-10-18T09:30:59.733Z,33.53
2022-10-18T09:33:42.571Z,33.80
2022-10-18T09:36:15.352Z,31.87
2022-10-18T09:39:12.099Z,29.03
2022-10-18T09:41:44.399Z,29.57
2022-10-18T09:44:20.009Z,27.40
2022-10-18T09:47:00.806Z,27.03
2022-10-18T09:49:43.511Z,27.93
2022-10-18T09:52:24.874Z,26.47
2022-10-18T09:54:57.286Z,32.10
2022-10-18T09:57:33.772Z,32.10
2022-10-18T10:00:22.333Z,28.70
2022-10-18T10:02:56.767Z,28.67
2022-10-18T10:05:28.945Z,31.20
2022-10-18T10:08:02.390Z,31.77
2022-10-18T10:10:34.529Z,29.77
2022-10-18T10:13:08.912Z,32.50
2022-10-18T10:15:39.424Z,29.83
2022-10-18T10:18:22.928Z,30.17
2022-10-18T10:20:54.934Z,29.90
2022-10-18T10:23:29.521Z,27.87
2022-10-18T10:26:06.590Z,28.50
2022-10-18T10:29:43.558Z,26.50
2022-10-18T10:32:18.123Z,24.83
2022-10-18T10:34:49.602Z,25.77
2022-10-18T10:37:55.040Z,21.30
2022-10-18T10:40:28.696Z,23.87
2022-10-18T10:46:47.996Z,30.30
2022-10-18T10:57:05.169Z,29.17
2022-10-18T10:59:51.911Z,29.37
2022-10-18T11:02:23.732Z,35.27
2022-10-18T11:05:18.146Z,31.63
2022-10-18T11:07:48.180Z,35.07
2022-10-18T11:10:21.792Z,32.17
2022-10-18T11:13:05.337Z,33.73
2022-10-18T11:15:38.158Z,29.43
2022-10-18T11:18:22.608Z,28.20
2022-10-18T11:20:59.894Z,26.80
2022-10-18T11:23:37.884Z,25.63
2022-10-18T11:26:48.914Z,23.47
2022-10-18T11:30:02.380Z,28.53
2022-10-18T11:32:50.961Z,25.83
2022-10-18T11:35:49.349Z,26.50
2022-10-18T11:38:32.718Z,24.17
2022-10-18T11:41:32.316Z,22.17
2022-10-18T11:44:05.236Z,24.37
2022-10-18T11:46:48.756Z,22.53
2022-10-18T11:49:42.901Z,22.00
2022-10-18T11:52:25.967Z,19.30
2022-10-18T11:55:18.652Z,17.97
2022-10-18T11:58:19.643Z,16.03
2022-10-18T12:00:52.287Z,14.33
2022-10-18T12:03:31.455Z,11.50
2022-10-18T12:06:04.595Z,9.70
2022-10-18T12:08:38.830Z,9.30
2022-10-18T12:11:14.350Z,8.73
2022-10-18T12:13:47.880Z,8.10
2022-10-18T12:16:38.936Z,7.63
2022-10-18T12:19:27.525Z,8.87
2022-10-18T12:21:59.014Z,8.67
2022-10-18T12:24:31.600Z,8.80
2022-10-18T12:33:27.389Z,6.70
2022-10-18T12:36:05.660Z,7.20
2022-10-18T12:38:36.619Z,7.73
2022-10-18T12:41:06.837Z,8.10
2022-10-18T12:43:37.771Z,8.93
2022-10-18T12:46:13.090Z,9.67
2022-10-18T12:48:46.288Z,9.37
2022-10-18T12:51:19.158Z,9.37
2022-10-18T12:54:12.772Z,8.97
2022-10-18T12:56:43.538Z,7.27
2022-10-18T12:59:55.182Z,7.90
2022-10-18T13:02:29.480Z,6.33
2022-10-18T13:05:02.746Z,7.47
2022-10-18T13:07:43.322Z,7.40
2022-10-18T13:10:45.628Z,7.50
2022-10-18T13:14:13.947Z,8.17
2022-10-18T13:16:50.617Z,9.00
2022-10-18T13:19:29.605Z,10.13
2022-10-18T13:22:16.241Z,7.93
2022-10-18T13:25:05.676Z,7.40
2022-10-18T13:27:46.121Z,7.13
2022-10-18T13:30:38.607Z,6.30
2022-10-18T13:33:23.516Z,6.17
2022-10-18T13:35:55.623Z,6.07
2022-10-18T13:38:47.283Z,5.43
2022-10-18T13:41:20.409Z,7.30
2022-10-18T13:44:12.510Z,6.10
2022-10-18T13:47:20.335Z,4.67
2022-10-18T13:50:25.821Z,5.00
2022-10-18T13:53:28.201Z,4.53
2022-10-18T13:56:09.451Z,4.10
2022-10-18T13:59:05.681Z,4.30
2022-10-18T14:01:54.469Z,4.10
2022-10-18T14:04:44.242Z,3.53
2022-10-18T14:07:15.439Z,3.80
2022-10-18T14:09:56.296Z,3.60
2022-10-18T14:12:32.357Z,4.23
2022-10-18T14:15:08.583Z,4.33
2022-10-18T14:17:50.584Z,4.20
2022-10-18T14:20:32.724Z,3.77
2022-10-18T14:23:06.387Z,4.63
2022-10-18T14:25:40.111Z,3.70
2022-10-18T14:28:16.456Z,2.73
2022-10-18T14:30:57.859Z,2.53
2022-10-18T14:33:35.045Z,3.70
2022-10-18T14:36:12.917Z,2.33
2022-10-18T14:38:50.698Z,2.37
2022-10-18T14:41:26.202Z,2.60
2022-10-18T14:44:10.653Z,2.53
2022-10-18T14:46:45.478Z,2.70
2022-10-18T14:49:23.024Z,3.50
2022-10-18T14:52:00.220Z,2.67
2022-10-18T14:54:32.474Z,2.30
2022-10-18T14:57:01.803Z,2.83
2022-10-18T14:59:34.396Z,2.40
2022-10-18T15:02:13.834Z,2.37
2022-10-18T15:04:45.442Z,2.23
2022-10-18T15:07:19.629Z,2.20
2022-10-18T15:09:51.072Z,2.90
2022-10-18T15:12:20.029Z,3.07
2022-10-18T15:14:49.789Z,2.97
2022-10-18T15:20:28.438Z,2.80
2022-10-18T15:23:24.623Z,2.50
2022-10-18T15:26:03.228Z,2.40
2022-10-18T15:28:36.006Z,2.23
2022-10-18T15:31:05.213Z,2.50
2022-10-18T15:33:35.118Z,2.03
2022-10-18T15:36:21.433Z,1.73
2022-10-18T15:38:50.158Z,2.27
2022-10-18T15:41:37.846Z,2.30
2022-10-18T15:44:18.979Z,2.10
2022-10-18T15:50:42.357Z,2.07
2022-10-18T15:53:36.896Z,2.30
2022-10-18T15:56:07.627Z,1.93
2022-10-18T15:58:51.501Z,2.13
2022-10-18T16:01:33.882Z,1.80
2022-10-18T16:04:20.411Z,2.00
2022-10-18T16:06:50.130Z,2.30
2022-10-18T16:09:21.213Z,3.30
2022-10-18T16:11:56.410Z,3.77
2022-10-18T16:14:27.081Z,3.60
2022-10-18T16:17:00.639Z,3.07
2022-10-18T16:19:29.078Z,2.90
2022-10-18T16:22:03.674Z,3.43
2022-10-18T16:24:34.443Z,2.47
2022-10-18T16:27:02.899Z,2.67
2022-10-18T16:29:33.208Z,2.37
2022-10-18T16:32:01.527Z,2.80
2022-10-18T16:34:32.255Z,2.70
2022-10-18T16:37:02.053Z,2.67
2022-10-18T16:39:34.840Z,2.57
2022-10-18T16:42:03.243Z,2.40
2022-10-18T16:44:36.075Z,2.40
2022-10-18T16:47:04.959Z,2.40
2022-10-18T16:49:33.205Z,2.90
2022-10-18T16:52:02.965Z,2.53
2022-10-18T16:54:31.157Z,2.37
2022-10-18T16:56:59.295Z,2.40
2022-10-18T16:59:29.235Z,2.83
2022-10-18T17:01:58.129Z,2.33
2022-10-18T17:04:26.580Z,2.90
2022-10-18T17:06:58.530Z,2.40
2022-10-18T17:09:27.984Z,2.07
2022-10-18T17:11:56.345Z,2.27
2022-10-18T17:14:24.538Z,2.07
2022-10-18T17:16:55.919Z,3.13
2022-10-18T17:19:50.130Z,2.93
2022-10-18T17:22:18.379Z,3.10
2022-10-18T17:24:47.917Z,3.20
2022-10-18T17:27:16.090Z,2.80
2022-10-18T17:30:12.652Z,6.57
2022-10-18T17:32:44.486Z,6.00
2022-10-18T17:35:13.434Z,3.90
2022-10-18T17:37:45.412Z,2.73
2022-10-18T17:40:19.914Z,2.50
2022-10-18T17:42:57.368Z,2.60
2022-10-18T17:45:25.874Z,2.80
2022-10-18T17:47:56.529Z,2.70
2022-10-18T17:50:30.800Z,2.53
2022-10-18T17:52:59.254Z,2.20
2022-10-18T17:55:30.194Z,2.50
2022-10-18T17:58:03.420Z,2.37
2022-10-18T18:00:34.779Z,2.40
2022-10-18T18:03:05.784Z,2.63
2022-10-18T18:05:41.282Z,2.30
2022-10-18T18:08:11.616Z,2.50
2022-10-18T18:10:44.589Z,2.93
2022-10-18T18:13:16.370Z,3.00
2022-10-18T18:16:11.461Z,3.00
2022-10-18T18:18:40.138Z,2.90
2022-10-18T18:21:08.640Z,3.20
2022-10-18T18:23:37.148Z,3.23
2022-10-18T18:26:07.581Z,3.50
2022-10-18T18:28:40.960Z,3.80
2022-10-18T18:32:05.219Z,3.30
2022-10-18T18:34:58.258Z,3.47
2022-10-18T18:37:47.889Z,3.97
2022-10-18T18:40:16.064Z,3.27
2022-10-18T18:42:56.791Z,3.00
2022-10-18T18:45:39.788Z,3.13
2022-10-18T18:48:08.344Z,3.03
2022-10-18T18:50:41.213Z,3.03
2022-10-18T18:53:31.445Z,2.80
2022-10-18T18:59:34.826Z,2.87
2022-10-18T19:02:38.481Z,3.30
2022-10-18T19:06:01.113Z,3.17
2022-10-18T19:09:15.405Z,2.90
2022-10-18T19:11:43.621Z,3.40
2022-10-18T19:14:25.395Z,3.03
2022-10-18T19:17:57.726Z,2.90
2022-10-18T19:24:25.125Z,3.00
2022-10-18T19:27:13.325Z,3.30
2022-10-18T19:34:19.363Z,2.53
2022-10-18T19:37:46.142Z,3.63
2022-10-18T19:40:39.127Z,3.10
2022-10-18T19:43:43.783Z,2.87
2022-10-18T19:46:12.723Z,4.20
2022-10-18T19:48:50.269Z,4.33
2022-10-18T19:51:25.490Z,4.73
2022-10-18T19:53:57.451Z,5.03
2022-10-18T19:57:14.843Z,4.90
2022-10-18T20:00:20.922Z,4.03
2022-10-18T20:02:52.236Z,4.23
2022-10-18T20:05:21.975Z,4.30
2022-10-18T20:07:50.217Z,5.73
2022-10-18T20:10:18.596Z,4.80
2022-10-18T20:12:46.924Z,3.93
2022-10-18T20:15:15.130Z,3.90
2022-10-18T20:17:43.401Z,3.60
2022-10-18T20:20:12.591Z,3.80
2022-10-18T20:22:42.181Z,3.80
2022-10-18T20:25:10.765Z,3.77
2022-10-18T20:27:39.238Z,4.23
2022-10-18T20:30:10.545Z,3.90
2022-10-18T20:32:42.737Z,3.93
2022-10-18T20:35:11.019Z,3.53
2022-10-18T20:37:44.593Z,3.33
2022-10-18T20:40:13.872Z,3.50
2022-10-18T20:42:42.242Z,3.43
2022-10-18T20:45:12.456Z,3.63
2022-10-18T20:47:43.594Z,3.40
2022-10-18T20:50:11.685Z,3.83
2022-10-18T20:52:39.837Z,3.50
2022-10-18T20:55:09.580Z,4.23
2022-10-18T20:57:44.025Z,3.70
2022-10-18T21:00:13.665Z,3.60
2022-10-18T21:02:44.146Z,3.87
2022-10-18T21:05:12.268Z,3.63
2022-10-18T21:07:43.041Z,3.93
2022-10-18T21:10:12.556Z,3.53
2022-10-18T21:12:40.931Z,3.70
2022-10-18T21:15:10.129Z,3.77
2022-10-18T21:18:03.211Z,3.97
2022-10-18T21:20:31.760Z,3.80
2022-10-18T21:22:59.978Z,3.23
2022-10-18T21:25:35.857Z,3.27
2022-10-18T21:28:03.947Z,3.33
2022-10-18T21:30:45.917Z,3.90
2022-10-18T21:33:14.107Z,3.87
2022-10-18T21:35:42.289Z,3.10
2022-10-18T21:38:10.668Z,3.30
2022-10-18T21:40:44.517Z,3.23
2022-10-18T21:43:12.813Z,3.30
2022-10-18T21:45:40.950Z,3.00
2022-10-18T21:48:09.180Z,3.20
2022-10-18T21:50:37.382Z,3.53
2022-10-18T21:53:05.537Z,3.10
2022-10-18T21:55:37.109Z,2.73
2022-10-18T21:58:15.957Z,2.63
2022-10-18T22:00:44.231Z,2.80
2022-10-18T22:03:14.664Z,2.67
2022-10-18T22:05:42.867Z,3.07
2022-10-18T22:08:10.994Z,2.57
2022-10-18T22:10:39.321Z,2.50
2022-10-18T22:13:07.570Z,2.50
2022-10-18T22:18:05.393Z,2.67
2022-10-18T22:20:33.678Z,2.50
2022-10-18T22:23:01.904Z,2.70
2022-10-18T22:25:30.058Z,2.53
2022-10-18T22:28:04.266Z,2.70
2022-10-18T22:30:46.145Z,3.03
2022-10-18T22:33:16.746Z,2.40
2022-10-18T22:35:49.625Z,2.60
2022-10-18T22:38:18.116Z,2.60
2022-10-18T22:40:47.010Z,2.63
2022-10-18T22:43:15.343Z,2.83
2022-10-18T22:45:43.514Z,2.60
2022-10-18T22:48:13.194Z,2.47
2022-10-18T22:50:41.333Z,2.60
2022-10-18T22:53:09.500Z,2.70
2022-10-18T22:55:37.654Z,2.93
2022-10-18T22:58:05.705Z,3.20
2022-10-18T23:00:33.883Z,2.47
2022-10-18T23:03:03.447Z,2.80
2022-10-18T23:05:38.514Z,2.63
2022-10-18T23:08:06.903Z,2.47
2022-10-18T23:10:35.381Z,3.00
2022-10-18T23:13:10.994Z,2.67
2022-10-18T23:15:39.980Z,2.60
2022-10-18T23:18:08.287Z,3.20
2022-10-18T23:20:38.002Z,2.57
2022-10-18T23:23:06.276Z,2.60
2022-10-18T23:25:36.564Z,2.70
2022-10-18T23:28:05.026Z,2.60
2022-10-18T23:30:33.880Z,2.70
2022-10-18T23:33:02.276Z,2.70
2022-10-18T23:35:30.645Z,2.60
2022-10-18T23:38:00.301Z,2.83
2022-10-18T23:40:29.687Z,3.53
2022-10-18T23:42:57.812Z,2.57
2022-10-18T23:45:26.015Z,3.00
2022-10-18T23:47:54.191Z,3.10
2022-10-18T23:50:22.380Z,3.10
2022-10-18T23:52:52.465Z,2.90
2022-10-18T23:55:22.192Z,2.77
2022-10-18T23:57:50.307Z,3.10
